< < Back
Terminal Aerodrome Forecast


Current Version              Previous Versions:   1  2  3  4  5  6  7  8  9  

Terminal Aerodrome Forecast

143
FTUS44 KBMX 301700
TAFTCL
TAF
KTCL 301722Z 3018/3118 01006KT P6SM SCT050=



Latest METAR

417
SAUS70 KWBC 311500
MTRTCL
METAR KTCL 311453Z 02004KT 9SM CLR 27/16 A3007 RMK AO2 SLP180 T02670156
51006


USA.gov is the U.S. government's official web portal to all federal, state and local government web resources and services.